KDNL/DNL METAR and TAF weather

Enter ICAO airport designator
Station Type Date Time Source
KDNL METAR 2021/05/13 04:53 UTC NOAA

KDNL 130453Z AUTO 03005KT 10SM OVC043 11/07 A3026 RMK AO2 SLP245 T01060067 402280100


Station Type Date Time Source
KDNL Decoded METAR 2021/05/13 04:53 UTC NOAA

AUGUSTA DANIEL FIELD, GA, United States (KDNL) 33-28N 82-02W 130M
May 13, 2021 - 12:53 AM EDT / 2021.05.13 0453 UTC
Wind: from the NNE (030 degrees) at 6 MPH (5 KT):0
Visibility: 10 mile(s):0
Sky conditions: overcast
Temperature: 51.1 F (10.6 C)
Dew Point: 44.1 F (6.7 C)
Relative Humidity: 76%
Pressure (altimeter): 30.26 in. Hg (1024 hPa)
ob: KDNL 130453Z AUTO 03005KT 10SM OVC043 11/07 A3026 RMK AO2 SLP245 T01060067 402280100
cycle: 5

Station Type Date Time Source
KDNL TAF 2021/05/13 06:33 UTC NOAA

TAF KDNL 130531Z 1306/1406 01006KT P6SM BKN040
FM131400 04010G15KT P6SM SCT060
FM131900 04008KT P6SM SCT070
FM140000 04004KT P6SM SKC

Example: see airport list